Etusivu
METAR-TAF:

METAR-TAF

Lentoasemat :

Bournemouthin lentoasema

Bournemouth, Englanti

Leveyspiiri: 50-47N, Pituuspiiri: 001-50W, korkeus merenpinnasta: 11 m

Tämänhetkinen sää

Tämä raportti tehtiin 16 minuuttia sitten, kello 10.20 UTC
Tuuli 10 kn idästä/kaakosta
Lämpötila 22°C
Kosteus 35%
Ilmanpaine 1027 hPa
Näkyvyys 10 km tai enemmän
ei pilviä alle 1500 m:ssä eikä cumulonimbus-pilviä

METAR: EGHH 291020Z 12010KT CAVOK 22/06 Q1027

Aika: 11:36 (10:36 UTC)

Sääennuste

Tämä raportti tehtiin 2 tuntia ja 31 minuuttia sitten, kello 08.05 UTC
Ennuste voimassa 29. päivästä klo 09 UTC - 29. päivään klo 17 UTC
Tuuli 8 kn idästä
Näkyvyys 10 km tai enemmän
ei pilviä alle 1500 m:ssä eikä cumulonimbus-pilviä

TAF: EGHH 290805Z 2909/2917 10008KT CAVOK

Säähavainnot ja -ennusteet yli 4000 lentoasemalta (METAR- ja TAF-raportit).

Käytössä olevat sääasemat on merkitty karttaan keltaisilla ja punaisilla pisteillä.

Aseta hiiri pisteen päälle nähdäksesi sääaseman nimen.

Klikkaa sitten nähdäksesi säähavainnot ja -ennusteet.

Kartan vaihtaminen: klikkaa mustalla rastilla varustettuja vihreitä pisteitä, niin voit zoomata sisään; viivalla varustettua vihreää pistettä, niin voit zoomata ulos tai vihreitä nuolia, niin pääset viereisille kartoille.


METAR-TAF: